メインページ
METAR-TAF:

METAR-TAF

空港 :

メヘラーバード国際空港

テヘラン, イラン

緯度: 35-41N, 経度: 051-21E, 海抜: 1204m

現時点の気象観測

当レポートは24分前の12:30(UTC)に作成
西の風 16kt
気温 24°C
湿度 25%
気圧 1020 hPa
視程10km以上
高度3500ftの雲はほとんどない

METAR: OIII 211230Z 26016KT 9999 FEW035 24/03 Q1019 A3011

時間: 16:24 (12:54 UTC)

予報

当レポートは1時間24分前の11:30(UTC)に作成
予報は21日の 12時(UTC)から 22日の 18時(UTC)まで有効
西/南西の風 14kt
視程: 8000m
高度3500ftの雲はほとんどない, 積乱雲.
高度4000ftの雲は散在している
21日の 16時(UTC)から 21日の 17時(UTC)まで徐々に
西の風 8kt
22日の 05時(UTC)から 22日の 08時(UTC)まで一時的に
視程: 5000m
煙霧
22日の 10時(UTC)から 22日の 16時(UTC)まで一時的に
西の風 16kt
高度3500ftの雲はほとんどない, 積乱雲.
高度4000ftの雲は散在している
高度9000ftの千切れ雲あり

TAF: OIII 211130Z 2112/2218 25007MPS 8000 FEW035CB SCT040 BECMG 2116/2117 28004MPS NSC TEMPO 2205/2208 5000 HZ TEMPO 2210/2216 27008MPS FEW035CB SCT040 BKN090

4,000以上の空港の気象観測と天気予報(METAR報とTAF報)

利用可能な観測所は地図上に黄色い丸と赤い丸で示す。

丸の上にカーソルを重ねると観測所名を参照できる。

次にクリックすると気象観測と天気予報を参照できる。

マップの切り替え:黒色「×」印の緑ボタンをクリックして拡大、「-」印の緑ボタンをクリックして縮小、緑色の三角印をクリックして隣りの地図に切り替え


METAR-TAF: